Time;durP1;ratioP1;P1;durP2;ratioP2;P2;SDS_P1;SDS_P2;PMS_P1;PMS_P2;Temp;Humidity;BMP_temperature;BMP_pressure;BME280_temperature;BME280_humidity;BME280_pressure;Samples;Min_cycle;Max_cycle;Signal;HPM_P1;HPM_P2
2022/12/14 00:00:47;;;;;;;13.75;5.57;;;;;;;0.53;50.69;95810.09;5004111;28;20221;-74
2022/12/14 00:03:13;;;;;;;13.30;6.20;;;;;;;0.49;51.05;95800.47;4998937;28;20623;-74
2022/12/14 00:05:39;;;;;;;12.85;5.72;;;;;;;0.50;51.28;95799.50;4968860;28;20227;-73
2022/12/14 00:08:05;;;;;;;8.85;5.40;;;;;;;0.27;51.31;95788.09;4969675;28;20232;-75
2022/12/14 00:10:31;;;;;;;12.77;5.60;;;;;;;0.43;50.79;95791.06;4977592;28;20241;-75
2022/12/14 00:12:57;;;;;;;9.02;5.03;;;;;;;0.52;50.39;95787.25;4999154;28;20200;-75
2022/12/14 00:15:22;;;;;;;13.57;6.00;;;;;;;0.55;50.54;95787.59;5024540;27;20150;-75
2022/12/14 00:17:48;;;;;;;9.52;5.45;;;;;;;0.68;49.86;95791.78;5005939;28;20227;-74
2022/12/14 00:20:13;;;;;;;9.63;5.05;;;;;;;0.51;50.17;95772.88;4989465;28;20212;-75
2022/12/14 00:22:38;;;;;;;11.60;5.97;;;;;;;0.57;50.92;95772.03;5024161;28;20225;-75
2022/12/14 00:25:04;;;;;;;12.48;5.32;;;;;;;0.72;50.41;95767.31;5006356;28;20201;-75
2022/12/14 00:27:29;;;;;;;9.30;5.03;;;;;;;0.42;50.22;95757.00;5025053;28;20361;-74
2022/12/14 00:29:55;;;;;;;9.80;5.13;;;;;;;0.45;51.45;95751.47;5004550;28;20295;-75
2022/12/14 00:32:21;;;;;;;9.65;5.55;;;;;;;0.66;51.30;95757.13;4988778;28;20370;-74
2022/12/14 00:34:46;;;;;;;10.57;5.28;;;;;;;0.74;50.61;95756.84;5001763;28;20672;-75
2022/12/14 00:37:11;;;;;;;10.95;4.70;;;;;;;0.58;50.93;95757.44;4985754;28;20182;-73
2022/12/14 00:39:37;;;;;;;11.07;5.30;;;;;;;0.54;50.01;95749.41;5005966;28;20155;-74
2022/12/14 00:42:02;;;;;;;10.55;5.10;;;;;;;0.48;50.83;95745.94;4987237;28;20254;-74
2022/12/14 00:44:28;;;;;;;9.23;4.82;;;;;;;0.50;50.25;95741.38;4972240;28;20160;-74
2022/12/14 00:46:53;;;;;;;10.50;5.38;;;;;;;0.41;50.99;95741.88;5003521;28;20278;-75
2022/12/14 00:49:18;;;;;;;12.27;5.80;;;;;;;0.55;51.06;95736.38;5009525;28;20237;-75
2022/12/14 00:51:44;;;;;;;9.75;4.85;;;;;;;0.65;51.15;95730.75;4999307;28;20256;-74
2022/12/14 00:54:09;;;;;;;11.10;4.72;;;;;;;0.50;50.74;95728.56;4989131;28;20158;-75
2022/12/14 00:56:34;;;;;;;9.90;5.72;;;;;;;0.51;50.70;95732.66;5004853;28;20559;-74
2022/12/14 00:59:00;;;;;;;10.77;5.05;;;;;;;0.54;50.33;95739.94;4988522;28;20292;-74
2022/12/14 01:01:25;;;;;;;10.27;5.05;;;;;;;0.57;50.48;95743.84;5005482;28;20298;-75
2022/12/14 01:04:15;;;;;;;9.25;5.30;;;;;;;0.58;50.39;95749.75;5004963;28;20289;-75
2022/12/14 01:06:36;;;;;;;11.45;4.78;;;;;;;0.69;49.67;95752.34;5023224;28;20675;-74
2022/12/14 01:09:01;;;;;;;9.02;4.78;;;;;;;0.86;50.48;95746.66;4985306;28;20262;-74
2022/12/14 01:11:26;;;;;;;9.32;4.80;;;;;;;0.82;50.41;95740.38;4968985;28;20628;-75
2022/12/14 01:13:54;;;;;;;9.63;4.38;;;;;;;0.91;50.03;95744.22;4968948;28;20144;-75
2022/12/14 01:16:20;;;;;;;13.15;5.88;;;;;;;0.67;50.13;95738.19;5005911;28;20174;-75
2022/12/14 01:18:45;;;;;;;10.23;4.68;;;;;;;0.66;49.81;95734.09;4988656;28;20677;-75
2022/12/14 01:21:14;;;;;;;10.43;6.05;;;;;;;0.80;50.30;95732.91;5044045;28;20209;-75
2022/12/14 01:23:39;;;;;;;8.65;5.07;;;;;;;0.76;50.52;95736.13;4995062;28;20300;-75
2022/12/14 01:26:05;;;;;;;11.15;5.53;;;;;;;0.82;50.44;95738.59;4975437;28;20248;-74
2022/12/14 01:28:30;;;;;;;10.25;5.88;;;;;;;0.81;50.22;95729.34;5024298;28;20257;-75
2022/12/14 01:30:55;;;;;;;10.27;4.57;;;;;;;0.89;50.31;95730.81;5005222;28;20209;-75
2022/12/14 01:33:21;;;;;;;10.40;5.50;;;;;;;0.87;50.26;95731.03;5005026;28;20201;-75
2022/12/14 01:35:46;;;;;;;8.73;5.20;;;;;;;0.93;50.25;95727.59;4992299;28;20151;-75
2022/12/14 01:38:11;;;;;;;10.32;5.38;;;;;;;0.81;50.71;95724.22;4995850;28;20246;-75
2022/12/14 01:40:37;;;;;;;11.15;5.47;;;;;;;0.86;50.49;95721.78;5027614;28;20289;-74
2022/12/14 01:43:11;;;;;;;10.95;5.53;;;;;;;0.97;49.75;95716.91;4971494;28;20291;-75
2022/12/14 01:45:36;;;;;;;11.07;4.95;;;;;;;0.97;50.42;95716.91;5006014;27;20301;-75
2022/12/14 01:48:02;;;;;;;10.00;4.60;;;;;;;0.99;49.73;95720.03;5029017;27;20236;-74
2022/12/14 01:50:34;;;;;;;10.45;5.03;;;;;;;1.08;50.32;95718.72;5012538;27;20204;-75
2022/12/14 01:53:10;;;;;;;9.10;4.68;;;;;;;1.17;50.56;95722.53;5028758;27;20280;-75
2022/12/14 01:55:41;;;;;;;10.10;5.18;;;;;;;0.98;50.52;95716.69;5011285;27;20177;-75
2022/12/14 01:58:18;;;;;;;10.55;4.97;;;;;;;0.95;50.72;95714.56;4997456;28;20185;-75
2022/12/14 02:00:51;;;;;;;11.18;5.63;;;;;;;0.83;50.85;95731.69;4992972;28;20644;-75
2022/12/14 02:03:24;;;;;;;15.73;5.82;;;;;;;1.09;50.34;95726.19;5008025;28;20155;-75
2022/12/14 02:05:56;;;;;;;10.40;4.88;;;;;;;0.85;50.36;95720.22;5011136;27;20643;-75
2022/12/14 02:08:22;;;;;;;10.20;5.25;;;;;;;0.92;50.33;95726.03;5028954;27;20692;-75
2022/12/14 02:10:49;;;;;;;9.82;4.93;;;;;;;0.85;50.89;95733.03;5006136;28;20194;-75
2022/12/14 02:13:23;;;;;;;8.77;4.47;;;;;;;1.04;50.52;95726.06;5008545;28;20320;-75
2022/12/14 02:15:49;;;;;;;11.18;5.03;;;;;;;0.90;51.11;95717.00;5001549;27;20268;-75
2022/12/14 02:18:23;;;;;;;10.05;5.00;;;;;;;1.08;50.74;95718.72;4994789;27;20298;-75
2022/12/14 02:21:01;;;;;;;9.47;4.27;;;;;;;1.06;50.61;95716.41;5012246;27;20273;-75
2022/12/14 02:23:41;;;;;;;9.27;4.97;;;;;;;1.04;50.82;95717.59;5012729;28;20521;-74
2022/12/14 02:26:13;;;;;;;10.98;5.07;;;;;;;1.07;50.63;95712.03;4994136;27;20204;-75
2022/12/14 02:29:02;;;;;;;11.60;5.82;;;;;;;1.12;50.87;95714.72;5043901;27;20103;-75
2022/12/14 02:31:57;;;;;;;12.27;5.30;;;;;;;1.15;50.87;95704.03;4987881;28;20308;-75
2022/12/14 02:34:29;;;;;;;11.27;4.88;;;;;;;0.82;51.23;95702.72;4971453;28;20202;-75
2022/12/14 02:37:01;;;;;;;10.20;5.13;;;;;;;0.98;51.02;95695.41;4992663;27;20286;-75
2022/12/14 02:39:50;;;;;;;9.65;5.57;;;;;;;0.89;51.28;95692.38;4991613;28;20189;-76
2022/12/14 02:42:23;;;;;;;8.43;4.82;;;;;;;1.04;50.49;95692.75;4994028;28;20213;-74
2022/12/14 02:45:11;;;;;;;11.90;6.07;;;;;;;1.10;50.54;95684.19;4974569;28;20639;-74
2022/12/14 02:47:49;;;;;;;8.98;4.00;;;;;;;1.11;51.03;95692.66;4990493;28;20642;-75
2022/12/14 02:50:33;;;;;;;8.80;4.85;;;;;;;1.23;51.34;95690.09;4990427;28;20258;-75
2022/12/14 02:53:26;;;;;;;10.25;5.40;;;;;;;1.09;51.11;95685.16;5010800;27;20560;-75
2022/12/14 02:55:52;;;;;;;10.65;5.13;;;;;;;1.01;51.68;95677.03;5007401;27;20827;-75
2022/12/14 02:58:24;;;;;;;10.52;5.47;;;;;;;1.16;51.21;95663.78;5017114;28;20277;-75
2022/12/14 03:00:52;;;;;;;9.50;4.65;;;;;;;1.09;51.25;95667.22;5023957;28;20697;-75
2022/12/14 03:03:17;;;;;;;11.40;5.70;;;;;;;1.06;51.06;95665.13;4990187;28;20586;-75
2022/12/14 03:05:53;;;;;;;12.68;5.28;;;;;;;1.00;50.85;95652.41;5008208;28;20276;-75
2022/12/14 03:08:20;;;;;;;8.68;4.43;;;;;;;1.10;51.13;95657.78;5007574;28;20594;-75
2022/12/14 03:10:50;;;;;;;12.38;5.32;;;;;;;1.09;50.50;95659.53;5007675;28;20237;-75
2022/12/14 03:13:19;;;;;;;11.27;5.35;;;;;;;1.17;50.96;95658.44;5023774;28;20249;-75
2022/12/14 03:15:47;;;;;;;9.93;4.65;;;;;;;1.08;50.52;95649.50;5022928;28;20689;-75
2022/12/14 03:18:16;;;;;;;9.75;5.05;;;;;;;1.15;51.20;95642.50;5024396;28;20683;-74
2022/12/14 03:20:43;;;;;;;11.13;5.63;;;;;;;1.03;51.09;95649.38;5024089;28;20650;-75
2022/12/14 03:23:19;;;;;;;9.65;4.40;;;;;;;1.14;52.14;95651.19;5026194;27;20223;-75
2022/12/14 03:25:47;;;;;;;13.63;5.50;;;;;;;1.13;51.71;95657.31;5026522;27;20200;-75
2022/12/14 03:28:17;;;;;;;11.27;5.70;;;;;;;1.10;51.74;95653.44;5010425;27;20203;-75
2022/12/14 03:30:47;;;;;;;11.82;4.88;;;;;;;1.22;51.35;95657.78;4953718;28;20209;-75
2022/12/14 03:33:17;;;;;;;11.02;5.78;;;;;;;1.20;51.90;95655.44;4986077;28;20244;-75
2022/12/14 03:35:54;;;;;;;10.45;5.68;;;;;;;1.32;51.37;95652.91;4986216;28;20314;-75
2022/12/14 03:38:26;;;;;;;9.85;5.00;;;;;;;1.22;51.64;95652.66;4993034;28;20187;-75
2022/12/14 03:41:13;;;;;;;11.25;5.68;;;;;;;1.23;52.17;95651.66;4986670;28;20318;-74
2022/12/14 03:44:00;;;;;;;8.60;4.78;;;;;;;1.40;52.16;95649.19;5005200;28;20190;-75
2022/12/14 03:46:30;;;;;;;11.18;5.43;;;;;;;1.15;52.50;95650.22;4978026;27;20246;-75
2022/12/14 03:49:20;;;;;;;9.68;5.82;;;;;;;1.28;52.12;95655.09;5026890;27;20667;-75
2022/12/14 03:51:54;;;;;;;11.10;4.97;;;;;;;1.27;52.28;95645.84;5045121;27;20200;-75
2022/12/14 03:54:27;;;;;;;10.13;5.10;;;;;;;1.30;52.17;95640.28;4989428;28;20185;-75
2022/12/14 03:56:58;;;;;;;10.90;5.72;;;;;;;1.28;53.08;95629.44;5000196;27;20699;-75
2022/12/14 03:59:30;;;;;;;11.73;5.47;;;;;;;1.22;53.01;95638.06;5008798;28;20166;-75
2022/12/14 04:02:31;;;;;;;11.38;5.60;;;;;;;1.28;53.12;95636.38;5006675;28;20562;-75
2022/12/14 04:05:06;;;;;;;10.98;6.05;;;;;;;1.17;53.17;95625.13;4949635;28;20685;-76
2022/12/14 04:07:57;;;;;;;11.35;5.50;;;;;;;1.08;53.70;95614.44;4971207;28;20274;-75
2022/12/14 04:19:07;;;;;;;13.70;6.15;;;;;;;1.04;53.63;95605.59;4999970;28;20280;-75
2022/12/14 04:21:59;;;;;;;10.35;5.55;;;;;;;1.09;53.60;95604.94;4970353;28;20290;-75
2022/12/14 04:27:16;;;;;;;12.55;5.53;;;;;;;1.08;53.96;95600.81;5004149;28;20197;-75
2022/12/14 04:29:58;;;;;;;10.35;5.68;;;;;;;1.13;53.82;95613.75;5015956;28;20275;-75
2022/12/14 04:32:43;;;;;;;13.25;6.20;;;;;;;1.42;53.36;95631.78;4989894;28;20189;-75
2022/12/14 04:35:11;;;;;;;10.75;5.85;;;;;;;1.26;53.95;95618.66;4990603;28;20240;-75
2022/12/14 04:37:40;;;;;;;10.30;5.70;;;;;;;1.20;53.69;95617.00;5007188;28;20693;-75
2022/12/14 04:40:12;;;;;;;12.13;6.18;;;;;;;1.23;53.25;95613.19;5006783;28;20198;-74
2022/12/14 04:42:53;;;;;;;12.65;6.65;;;;;;;1.26;53.67;95602.50;4973560;28;20651;-75
2022/12/14 04:45:23;;;;;;;11.32;6.35;;;;;;;1.17;54.12;95599.50;5003275;28;20195;-75
2022/12/14 04:48:06;;;;;;;12.93;5.93;;;;;;;1.26;53.62;95593.00;4986840;28;20202;-75
2022/12/14 04:50:35;;;;;;;13.15;5.63;;;;;;;1.20;54.22;95578.53;4970439;28;20183;-75
2022/12/14 04:53:07;;;;;;;11.68;5.68;;;;;;;1.18;53.97;95588.22;4970130;28;20194;-75
2022/12/14 04:55:48;;;;;;;11.75;5.50;;;;;;;1.26;54.20;95576.84;4954028;28;20183;-75
2022/12/14 04:58:21;;;;;;;13.38;5.68;;;;;;;1.11;53.95;95578.09;4986764;28;20651;-75
2022/12/14 05:01:17;;;;;;;11.60;5.93;;;;;;;1.17;53.87;95575.66;4987018;28;20202;-75
2022/12/14 05:04:02;;;;;;;10.23;5.53;;;;;;;1.41;53.54;95584.09;4987072;28;20202;-75
2022/12/14 05:06:41;;;;;;;8.47;4.33;;;;;;;1.45;53.79;95590.31;4970408;28;20344;-74
2022/12/14 05:09:10;;;;;;;12.68;5.43;;;;;;;1.45;53.55;95592.88;4986717;28;20640;-75
2022/12/14 05:11:44;;;;;;;12.25;6.70;;;;;;;1.35;53.93;95584.97;5004963;28;20449;-75
2022/12/14 05:14:16;;;;;;;9.73;5.07;;;;;;;1.31;53.96;95582.88;4999413;28;20205;-75
2022/12/14 05:16:42;;;;;;;11.13;5.60;;;;;;;1.11;53.81;95580.66;4990833;28;20167;-75
2022/12/14 05:19:08;;;;;;;11.65;6.55;;;;;;;0.98;54.94;95585.22;4957445;28;20210;-75
2022/12/14 05:21:47;;;;;;;10.60;5.50;;;;;;;0.70;55.18;95576.38;4988656;28;20242;-75
2022/12/14 05:24:12;;;;;;;12.07;5.82;;;;;;;0.99;54.03;95586.78;4993293;28;20294;-75
2022/12/14 05:26:37;;;;;;;10.70;6.10;;;;;;;0.97;54.92;95583.66;4993449;28;20639;-75
2022/12/14 05:29:03;;;;;;;13.45;6.07;;;;;;;1.12;54.08;95595.03;4993995;28;20248;-75
2022/12/14 05:31:28;;;;;;;11.20;6.40;;;;;;;1.19;54.24;95602.59;5010196;28;20633;-75
2022/12/14 05:33:54;;;;;;;9.07;5.32;;;;;;;1.08;54.04;95603.38;4993733;28;20647;-75
2022/12/14 05:36:19;;;;;;;12.55;5.93;;;;;;;1.08;54.37;95588.00;4977291;28;20362;-75
2022/12/14 05:38:45;;;;;;;15.40;6.03;;;;;;;1.04;54.53;95574.06;5010164;28;20670;-75
2022/12/14 05:41:10;;;;;;;12.30;7.05;;;;;;;1.08;55.07;95572.63;4993268;28;20200;-76
2022/12/14 05:43:36;;;;;;;12.25;5.78;;;;;;;1.11;54.59;95562.72;5010221;28;20269;-75
2022/12/14 05:46:03;;;;;;;10.90;5.57;;;;;;;1.14;54.90;95561.47;5006469;28;20234;-75
2022/12/14 05:48:29;;;;;;;14.32;7.28;;;;;;;0.92;55.48;95554.34;4990325;28;20252;-75
2022/12/14 05:50:54;;;;;;;12.82;6.40;;;;;;;0.95;55.07;95547.25;5001623;28;20148;-75
2022/12/14 05:53:20;;;;;;;13.88;6.15;;;;;;;0.98;54.94;95539.06;4990088;28;20233;-75
2022/12/14 05:55:49;;;;;;;12.43;5.93;;;;;;;0.86;55.34;95539.88;4990021;28;20322;-75
2022/12/14 05:58:15;;;;;;;11.95;6.28;;;;;;;0.78;55.66;95535.09;5006464;28;20244;-75
2022/12/14 06:00:40;;;;;;;19.58;10.27;;;;;;;0.90;55.57;95519.72;4989069;28;20366;-75
2022/12/14 06:03:06;;;;;;;23.38;10.57;;;;;;;0.89;55.91;95511.25;4955238;28;20210;-74
2022/12/14 06:05:31;;;;;;;14.98;7.15;;;;;;;0.71;56.16;95503.69;4972437;28;20202;-75
2022/12/14 06:07:57;;;;;;;13.88;7.15;;;;;;;0.71;56.12;95498.56;4989357;28;20730;-74
2022/12/14 06:10:22;;;;;;;12.95;7.05;;;;;;;0.71;56.55;95489.09;4988732;28;20346;-74
2022/12/14 06:12:48;;;;;;;13.13;6.65;;;;;;;0.48;56.60;95482.19;4988521;28;20283;-75
2022/12/14 06:15:13;;;;;;;14.02;7.57;;;;;;;0.48;56.52;95474.50;5007379;28;20342;-76
2022/12/14 06:17:45;;;;;;;12.85;6.75;;;;;;;0.92;55.65;95495.41;4988595;28;20451;-74
2022/12/14 06:20:12;;;;;;;13.95;7.45;;;;;;;0.83;56.01;95481.41;5005545;28;20206;-75
2022/12/14 06:22:37;;;;;;;14.80;7.13;;;;;;;0.90;55.57;95471.03;4987909;28;20201;-75
2022/12/14 06:25:03;;;;;;;17.17;6.00;;;;;;;0.81;55.09;95487.75;4987685;28;20198;-75
2022/12/14 06:27:28;;;;;;;12.80;6.75;;;;;;;0.95;55.46;95481.38;4971858;28;20762;-75
2022/12/14 06:29:54;;;;;;;14.50;7.47;;;;;;;0.97;55.51;95471.69;5001805;28;20370;-75
2022/12/14 06:32:19;;;;;;;11.63;6.35;;;;;;;1.10;54.30;95475.81;4991440;28;20650;-75
2022/12/14 06:34:44;;;;;;;11.10;5.68;;;;;;;1.11;54.79;95479.91;4991499;28;20188;-75
2022/12/14 06:37:10;;;;;;;12.88;6.82;;;;;;;1.19;54.91;95489.81;4991475;28;20283;-75
2022/12/14 06:39:35;;;;;;;14.68;6.10;;;;;;;1.18;54.43;95490.03;4974784;28;20220;-75
2022/12/14 06:42:01;;;;;;;13.13;6.38;;;;;;;1.18;54.73;95483.13;4974622;28;20706;-74
2022/12/14 06:44:26;;;;;;;11.70;6.53;;;;;;;1.24;54.94;95484.78;5004760;28;20193;-75
2022/12/14 06:46:51;;;;;;;14.75;6.75;;;;;;;1.26;54.76;95482.00;4988973;28;20187;-75
2022/12/14 06:49:17;;;;;;;11.85;6.85;;;;;;;1.27;54.44;95478.44;4988985;28;20272;-75
2022/12/14 06:51:43;;;;;;;12.00;6.43;;;;;;;1.29;54.39;95484.88;4971899;28;20623;-75
2022/12/14 06:54:10;;;;;;;11.63;6.97;;;;;;;1.36;54.56;95482.19;4957631;28;20731;-75
2022/12/14 06:56:36;;;;;;;15.80;7.35;;;;;;;1.32;54.40;95483.66;4991757;28;20186;-75
2022/12/14 06:59:01;;;;;;;13.60;7.53;;;;;;;1.24;54.83;95474.53;5009040;28;20189;-75
2022/12/14 07:01:28;;;;;;;12.60;7.03;;;;;;;1.17;55.34;95475.69;5027127;28;20205;-76
2022/12/14 07:03:55;;;;;;;13.85;7.55;;;;;;;1.08;55.07;95470.09;5008506;28;20167;-76
2022/12/14 07:06:25;;;;;;;10.57;6.05;;;;;;;1.30;55.05;95467.72;4992150;28;20233;-76
2022/12/14 07:08:55;;;;;;;14.98;7.30;;;;;;;1.42;54.63;95459.97;5008599;28;20186;-75
2022/12/14 07:11:21;;;;;;;15.25;6.28;;;;;;;1.37;54.93;95467.59;4990777;28;20260;-75
2022/12/14 07:13:46;;;;;;;12.68;6.80;;;;;;;1.37;55.10;95463.25;4991842;28;20296;-75
2022/12/14 07:16:15;;;;;;;13.45;7.03;;;;;;;1.64;54.30;95476.28;4991653;28;20182;-75
2022/12/14 07:18:41;;;;;;;14.10;7.85;;;;;;;1.54;54.06;95481.22;5008283;28;20644;-76
2022/12/14 07:21:09;;;;;;;12.65;7.20;;;;;;;1.49;55.31;95486.28;5008110;28;20266;-76
2022/12/14 07:23:36;;;;;;;13.15;7.63;;;;;;;1.37;56.49;95483.75;5008004;28;20205;-75
2022/12/14 07:26:09;;;;;;;14.60;7.68;;;;;;;1.54;55.82;95488.94;5023196;28;20250;-75
2022/12/14 07:28:38;;;;;;;15.02;8.15;;;;;;;1.36;55.80;95476.28;5008037;28;20198;-75
2022/12/14 07:31:06;;;;;;;14.52;7.82;;;;;;;1.26;56.76;95464.81;4991279;28;20201;-75
2022/12/14 07:33:32;;;;;;;15.38;8.13;;;;;;;1.25;56.68;95465.84;5008013;28;20205;-75
2022/12/14 07:36:05;;;;;;;15.75;8.57;;;;;;;1.43;56.89;95461.56;4991334;28;20194;-75
2022/12/14 07:38:32;;;;;;;17.65;8.02;;;;;;;1.30;56.40;95465.94;5004936;28;20239;-75
2022/12/14 07:41:05;;;;;;;15.48;7.72;;;;;;;1.26;57.68;95461.50;5006934;28;20292;-75
2022/12/14 07:43:31;;;;;;;13.80;6.85;;;;;;;1.14;57.81;95461.50;4990851;28;20239;-75
2022/12/14 07:46:01;;;;;;;15.13;7.80;;;;;;;1.04;58.15;95467.22;5006349;28;20202;-75
2022/12/14 07:48:27;;;;;;;15.75;7.07;;;;;;;1.12;57.89;95473.78;4987138;28;20201;-75
2022/12/14 07:50:52;;;;;;;17.08;8.95;;;;;;;1.14;58.31;95473.56;4954438;28;20645;-75
2022/12/14 07:53:18;;;;;;;16.45;8.40;;;;;;;1.12;58.86;95484.81;4987596;28;20210;-75
2022/12/14 07:55:43;;;;;;;15.68;7.70;;;;;;;1.10;59.01;95488.63;5004077;28;20273;-75
2022/12/14 07:58:08;;;;;;;15.50;8.88;;;;;;;1.14;59.22;95494.84;5006129;28;20186;-75
2022/12/14 08:00:34;;;;;;;18.38;10.20;;;;;;;1.14;59.89;95492.28;4970762;28;20198;-75
2022/12/14 08:02:59;;;;;;;20.27;11.00;;;;;;;1.07;60.18;95492.41;5004455;28;20163;-75
2022/12/14 08:05:24;;;;;;;16.88;8.73;;;;;;;0.99;60.73;95482.47;4954324;28;20354;-75
2022/12/14 08:07:50;;;;;;;16.73;9.40;;;;;;;0.96;60.21;95470.16;5004276;28;20272;-74
2022/12/14 08:10:15;;;;;;;19.25;11.15;;;;;;;0.87;60.49;95472.25;4987466;28;20220;-75
2022/12/14 08:12:40;;;;;;;20.90;11.43;;;;;;;0.81;61.19;95467.25;4987214;28;20206;-75
2022/12/14 08:15:07;;;;;;;19.02;10.10;;;;;;;0.95;61.24;95470.38;4970857;28;20202;-75
2022/12/14 08:17:32;;;;;;;21.42;10.75;;;;;;;0.88;61.23;95467.91;4987392;28;20175;-75
2022/12/14 08:19:57;;;;;;;21.20;11.07;;;;;;;0.82;61.97;95468.81;4970738;28;20652;-74
2022/12/14 08:22:23;;;;;;;18.90;10.10;;;;;;;0.85;61.35;95470.94;4953575;28;20690;-75
2022/12/14 08:24:48;;;;;;;21.60;10.82;;;;;;;0.78;62.19;95473.59;5005965;28;20406;-75
2022/12/14 08:27:13;;;;;;;18.45;10.52;;;;;;;0.74;62.73;95467.38;4970568;28;20268;-75
2022/12/14 08:29:39;;;;;;;21.42;11.50;;;;;;;0.70;62.75;95463.69;4970752;28;20284;-75
2022/12/14 08:32:04;;;;;;;20.08;10.68;;;;;;;0.69;62.44;95470.59;4986709;28;20284;-75
2022/12/14 08:34:29;;;;;;;18.70;10.65;;;;;;;0.53;62.86;95461.81;4954059;28;20761;-75
2022/12/14 08:36:55;;;;;;;20.05;10.82;;;;;;;0.36;63.68;95450.66;5005408;28;20263;-75
2022/12/14 08:39:20;;;;;;;21.63;10.43;;;;;;;0.48;63.65;95455.78;4970410;28;20385;-75
2022/12/14 08:41:45;;;;;;;21.33;10.32;;;;;;;0.58;62.73;95463.69;4969788;28;20191;-75
2022/12/14 08:44:12;;;;;;;20.20;10.70;;;;;;;0.81;62.23;95468.03;4970514;28;20279;-75
2022/12/14 08:46:38;;;;;;;21.17;11.43;;;;;;;0.83;62.56;95460.91;4987101;28;20236;-74
2022/12/14 08:49:03;;;;;;;24.17;11.57;;;;;;;0.96;62.02;95465.03;4986246;28;20243;-75
2022/12/14 08:51:29;;;;;;;22.42;11.88;;;;;;;0.73;62.51;95464.03;4982341;28;20374;-74
2022/12/14 08:53:55;;;;;;;19.30;10.98;;;;;;;0.64;62.85;95464.59;4990035;28;20636;-74
2022/12/14 08:56:23;;;;;;;25.13;12.52;;;;;;;0.79;62.75;95464.94;5006748;28;20421;-74
2022/12/14 08:58:49;;;;;;;22.25;11.20;;;;;;;0.80;62.55;95473.38;4990099;28;20205;-74
2022/12/14 09:01:18;;;;;;;25.10;11.55;;;;;;;0.85;62.56;95479.38;4974679;28;20163;-75
2022/12/14 09:03:44;;;;;;;29.95;15.00;;;;;;;0.92;61.88;95476.72;4970370;28;20282;-75
2022/12/14 09:06:13;;;;;;;33.35;15.48;;;;;;;0.90;62.07;95487.19;4986901;28;20206;-75
2022/12/14 09:08:38;;;;;;;30.60;14.38;;;;;;;0.73;61.95;95481.94;4986739;28;20175;-75
2022/12/14 09:11:04;;;;;;;28.35;15.32;;;;;;;0.75;62.68;95479.16;4986283;28;20194;-75
2022/12/14 09:13:31;;;;;;;23.88;12.32;;;;;;;0.78;62.77;95478.72;4986819;28;20664;-75
2022/12/14 09:16:05;;;;;;;21.13;11.55;;;;;;;0.93;62.34;95476.47;4986875;28;20214;-75
2022/12/14 09:18:30;;;;;;;28.65;13.80;;;;;;;0.85;62.32;95468.38;4986524;28;20194;-75
2022/12/14 09:20:57;;;;;;;29.33;13.88;;;;;;;0.96;62.60;95470.16;4985998;28;20205;-75
2022/12/14 09:23:24;;;;;;;26.48;12.52;;;;;;;1.00;62.47;95473.81;4986706;28;20206;-75
2022/12/14 09:26:10;;;;;;;25.33;12.35;;;;;;;1.00;62.33;95480.72;4986465;28;20202;-75
2022/12/14 09:28:37;;;;;;;28.38;12.68;;;;;;;0.84;62.44;95477.03;5005093;28;20607;-75
2022/12/14 09:31:05;;;;;;;27.13;12.75;;;;;;;0.86;62.97;95477.63;4980637;28;20164;-74
2022/12/14 09:33:31;;;;;;;24.40;12.73;;;;;;;0.85;62.66;95473.50;4996065;28;20193;-75
2022/12/14 09:36:04;;;;;;;23.67;13.52;;;;;;;1.18;62.00;95472.09;4980375;28;20204;-74
2022/12/14 09:38:31;;;;;;;24.45;12.68;;;;;;;1.14;62.22;95471.00;4981100;28;20199;-75
2022/12/14 09:40:59;;;;;;;24.77;11.88;;;;;;;1.02;62.67;95484.59;4996222;28;20201;-75
2022/12/14 09:43:34;;;;;;;22.95;12.23;;;;;;;1.12;62.35;95478.91;4999932;28;20167;-75
2022/12/14 09:46:13;;;;;;;22.23;12.02;;;;;;;0.97;62.19;95476.03;4979469;28;20203;-75
2022/12/14 09:48:40;;;;;;;23.35;11.45;;;;;;;0.98;62.47;95475.81;4977512;28;20198;-74
2022/12/14 09:51:12;;;;;;;26.40;11.75;;;;;;;0.95;63.03;95478.06;4986025;28;20206;-75
2022/12/14 09:53:38;;;;;;;20.38;11.20;;;;;;;1.06;62.61;95469.56;4995229;28;20631;-75
2022/12/14 09:56:12;;;;;;;26.38;12.50;;;;;;;1.06;62.81;95478.03;4996997;28;20185;-75
2022/12/14 09:58:40;;;;;;;26.47;12.73;;;;;;;0.97;62.83;95479.38;4996594;28;20628;-75
2022/12/14 10:01:21;;;;;;;26.65;11.93;;;;;;;1.21;62.56;95477.53;4998549;28;20198;-75
2022/12/14 10:04:01;;;;;;;24.35;12.55;;;;;;;1.40;62.26;95480.72;5028505;28;20201;-75
2022/12/14 10:06:31;;;;;;;21.73;10.48;;;;;;;1.16;62.10;95480.00;5030684;28;20085;-74
2022/12/14 10:09:01;;;;;;;26.02;12.52;;;;;;;1.11;62.51;95477.34;5011814;28;20688;-75
2022/12/14 10:11:41;;;;;;;24.02;11.65;;;;;;;1.11;62.70;95473.00;5027862;28;20267;-75
2022/12/14 10:14:12;;;;;;;26.08;12.88;;;;;;;1.30;62.39;95470.28;5028237;28;20209;-74
2022/12/14 10:16:48;;;;;;;22.58;11.00;;;;;;;1.40;62.24;95472.25;5028228;28;20205;-75
2022/12/14 10:19:32;;;;;;;22.90;11.77;;;;;;;1.09;62.19;95480.13;4992884;28;20205;-75
2022/12/14 10:22:00;;;;;;;25.88;13.20;;;;;;;1.03;62.41;95481.03;5027900;28;20209;-75
2022/12/14 10:24:30;;;;;;;26.20;12.85;;;;;;;1.24;62.20;95491.72;5027570;28;20217;-75
2022/12/14 10:26:56;;;;;;;27.13;12.57;;;;;;;1.38;62.01;95484.53;5009356;28;20162;-76
2022/12/14 10:29:24;;;;;;;24.92;13.48;;;;;;;1.30;61.80;95483.09;4992958;28;20262;-75
2022/12/14 10:32:04;;;;;;;27.35;13.48;;;;;;;1.38;61.84;95487.09;5027303;28;20252;-75
2022/12/14 10:34:31;;;;;;;26.73;12.80;;;;;;;1.30;61.78;95503.59;5009684;28;20186;-75
2022/12/14 10:37:31;;;;;;;23.75;13.10;;;;;;;1.47;61.37;95512.16;4976075;28;20155;-75
2022/12/14 10:40:09;;;;;;;25.48;13.15;;;;;;;1.38;61.50;95507.63;5009201;28;20631;-75
2022/12/14 10:42:41;;;;;;;22.05;11.90;;;;;;;1.59;61.06;95509.53;5027109;28;20202;-75
2022/12/14 10:45:09;;;;;;;24.38;12.75;;;;;;;1.59;60.69;95498.50;5005233;28;20164;-74
2022/12/14 10:47:42;;;;;;;24.90;12.50;;;;;;;1.49;61.53;95497.31;4989129;28;20206;-75
2022/12/14 10:50:48;;;;;;;25.15;12.98;;;;;;;1.51;61.58;95499.66;4973079;28;20325;-75
2022/12/14 10:53:16;;;;;;;25.13;12.45;;;;;;;1.16;62.05;95503.06;4975858;28;20204;-75
2022/12/14 10:55:43;;;;;;;28.55;13.90;;;;;;;1.09;63.13;95503.19;5008629;28;20264;-75
2022/12/14 10:58:11;;;;;;;26.50;12.63;;;;;;;1.29;62.60;95500.28;4991682;28;20268;-76
2022/12/14 11:00:37;;;;;;;29.27;14.10;;;;;;;1.18;63.42;95506.19;4991561;28;20275;-75
2022/12/14 11:03:05;;;;;;;28.00;14.23;;;;;;;1.32;62.82;95506.75;5008351;28;20217;-75
2022/12/14 11:05:43;;;;;;;27.70;12.70;;;;;;;1.45;62.30;95496.22;5008884;28;20278;-75
2022/12/14 11:08:44;;;;;;;26.13;13.20;;;;;;;1.40;62.57;95487.66;5027210;28;20337;-75
2022/12/14 11:11:23;;;;;;;37.60;17.45;;;;;;;1.36;62.78;95491.69;4990730;28;20385;-75
2022/12/14 11:13:54;;;;;;;32.08;14.98;;;;;;;1.46;62.67;95481.63;5008872;28;20681;-74
2022/12/14 11:16:33;;;;;;;28.58;15.05;;;;;;;1.50;62.16;95486.03;4991757;28;20204;-75
2022/12/14 11:19:00;;;;;;;31.08;13.88;;;;;;;1.39;62.98;95480.94;4991889;28;20162;-75
2022/12/14 11:21:35;;;;;;;27.88;13.25;;;;;;;1.31;62.89;95475.19;4991493;28;20183;-75
2022/12/14 11:24:01;;;;;;;29.85;15.57;;;;;;;0.95;63.62;95478.81;4991219;28;20176;-75
2022/12/14 11:26:39;;;;;;;29.00;16.05;;;;;;;1.25;63.80;95491.47;5008551;28;20689;-75
2022/12/14 11:29:15;;;;;;;26.23;13.18;;;;;;;1.31;62.51;95493.13;4991266;28;20312;-75
2022/12/14 11:31:46;;;;;;;28.00;13.32;;;;;;;1.18;63.52;95487.47;5007882;28;20331;-75
2022/12/14 11:34:33;;;;;;;26.10;13.15;;;;;;;1.35;63.00;95478.06;4991636;28;20170;-75
2022/12/14 11:37:25;;;;;;;27.67;13.15;;;;;;;1.35;63.12;95484.97;4991344;28;20181;-75
2022/12/14 11:39:53;;;;;;;28.27;13.85;;;;;;;1.12;63.52;95472.00;4991465;28;20623;-75
2022/12/14 11:42:20;;;;;;;26.33;13.18;;;;;;;1.19;63.72;95473.66;4990617;28;20107;-75
2022/12/14 11:44:47;;;;;;;27.50;13.95;;;;;;;1.12;63.82;95477.13;4982783;28;20186;-75
2022/12/14 11:47:18;;;;;;;29.05;15.00;;;;;;;1.29;63.77;95473.84;4971094;28;20687;-75
2022/12/14 11:49:55;;;;;;;29.52;16.48;;;;;;;1.36;63.64;95481.44;4971256;28;20713;-75
2022/12/14 11:52:40;;;;;;;28.52;13.93;;;;;;;1.51;63.08;95484.28;4973806;28;20399;-75
2022/12/14 11:55:11;;;;;;;25.77;14.95;;;;;;;1.25;63.71;95475.31;5007909;28;20210;-75
2022/12/14 11:57:48;;;;;;;32.70;15.60;;;;;;;1.19;64.06;95469.31;5025982;28;20194;-75